Time;durP1;ratioP1;P1;durP2;ratioP2;P2;SDS_P1;SDS_P2;PMS_P1;PMS_P2;Temp;Humidity;BMP_temperature;BMP_pressure;BME280_temperature;BME280_humidity;BME280_pressure;Samples;Min_cycle;Max_cycle;Signal;HPM_P1;HPM_P2
2023/01/19 00:00:09;;;;;;;5.72;3.10;;;;;;;18.23;41.21;100039.50;5009005;28;20107;-71
2023/01/19 00:02:35;;;;;;;6.10;3.20;;;;;;;18.26;41.56;100048.91;5024317;28;20041;-72
2023/01/19 00:05:00;;;;;;;6.28;3.20;;;;;;;18.23;41.38;100041.28;5013699;28;20345;-73
2023/01/19 00:07:26;;;;;;;6.22;3.47;;;;;;;18.19;41.29;100032.03;5011044;28;20038;-72
2023/01/19 00:09:51;;;;;;;7.20;3.22;;;;;;;18.18;41.48;100033.81;5014711;28;20180;-73
2023/01/19 00:12:16;;;;;;;7.38;3.30;;;;;;;18.21;41.40;100030.88;5019166;28;20718;-73
2023/01/19 00:14:41;;;;;;;6.10;3.40;;;;;;;18.22;41.48;100037.00;5005416;28;20083;-73
2023/01/19 00:17:07;;;;;;;6.05;3.30;;;;;;;18.21;41.38;100030.88;5014660;28;20152;-72
2023/01/19 00:19:32;;;;;;;6.53;3.40;;;;;;;18.21;41.53;100040.63;5008277;28;20034;-72
2023/01/19 00:21:57;;;;;;;4.93;2.80;;;;;;;18.20;41.54;100038.94;5004378;28;20128;-73
2023/01/19 00:24:22;;;;;;;6.38;3.03;;;;;;;18.15;41.59;100039.41;5019547;28;20059;-72
2023/01/19 00:26:48;;;;;;;5.75;2.78;;;;;;;18.17;41.49;100041.91;5023580;28;20072;-73
2023/01/19 00:29:14;;;;;;;6.25;3.28;;;;;;;18.16;41.38;100051.59;5023096;28;20033;-73
2023/01/19 00:31:40;;;;;;;5.07;2.75;;;;;;;18.11;41.33;100051.19;5023409;28;20026;-72
2023/01/19 00:34:06;;;;;;;6.88;3.08;;;;;;;18.12;41.59;100052.88;5006325;28;20607;-72
2023/01/19 00:36:32;;;;;;;7.07;3.30;;;;;;;18.11;41.61;100054.66;5003672;28;20050;-72
2023/01/19 00:38:58;;;;;;;5.30;3.13;;;;;;;18.08;41.47;100056.75;5014688;28;20080;-72
2023/01/19 00:42:38;;;;;;;7.53;3.38;;;;;;;18.12;41.84;100064.25;5048381;28;20053;-72
2023/01/19 00:44:10;;;;;;;6.00;3.47;;;;;;;18.06;41.65;100056.06;5003480;28;20125;-72
2023/01/19 00:46:35;;;;;;;5.65;2.90;;;;;;;18.08;41.44;100059.41;5020562;28;20389;-73
2023/01/19 00:49:01;;;;;;;5.72;2.83;;;;;;;18.09;41.46;100061.06;5004022;28;20500;-73
2023/01/19 00:51:26;;;;;;;7.00;3.22;;;;;;;18.08;41.33;100051.50;5009429;28;20368;-73
2023/01/19 00:53:51;;;;;;;5.85;2.85;;;;;;;18.08;41.82;100049.66;5022488;28;20140;-74
2023/01/19 00:56:17;;;;;;;6.38;2.72;;;;;;;18.04;41.43;100043.03;5018860;28;20462;-72
2023/01/19 00:58:44;;;;;;;5.55;3.20;;;;;;;18.06;41.78;100045.53;5022821;28;20044;-73
2023/01/19 01:01:10;;;;;;;5.65;2.88;;;;;;;18.02;41.65;100044.16;5009020;28;20044;-73
2023/01/19 01:03:35;;;;;;;5.40;3.03;;;;;;;18.00;41.53;100044.28;5001804;28;20042;-73
2023/01/19 01:06:02;;;;;;;5.50;3.10;;;;;;;18.02;41.86;100047.59;5003338;28;20046;-73
2023/01/19 01:08:28;;;;;;;5.07;3.00;;;;;;;17.99;41.38;100045.28;5002500;28;20405;-72
2023/01/19 01:10:54;;;;;;;5.50;3.00;;;;;;;18.03;41.55;100053.72;5003079;28;20398;-72
2023/01/19 01:13:20;;;;;;;6.00;3.13;;;;;;;18.02;41.69;100052.88;5007021;28;20136;-73
2023/01/19 01:15:48;;;;;;;7.05;3.28;;;;;;;17.97;41.25;100047.22;5019833;28;20141;-72
2023/01/19 01:18:14;;;;;;;5.40;3.00;;;;;;;18.00;41.63;100056.66;5006929;28;20030;-72
2023/01/19 01:20:39;;;;;;;5.35;3.10;;;;;;;17.98;41.29;100064.69;5002762;28;20036;-73
2023/01/19 01:23:04;;;;;;;5.22;2.90;;;;;;;17.94;41.52;100052.75;5010554;28;20544;-72
2023/01/19 01:25:30;;;;;;;8.40;3.75;;;;;;;17.94;41.55;100058.88;5022125;28;20037;-72
2023/01/19 01:27:55;;;;;;;7.95;3.42;;;;;;;17.94;41.39;100058.88;5022416;28;20133;-72
2023/01/19 01:30:21;;;;;;;6.63;3.05;;;;;;;17.96;41.58;100064.03;5016997;28;20144;-73
2023/01/19 01:32:47;;;;;;;6.57;2.95;;;;;;;17.92;41.60;100057.34;5002494;28;20629;-72
2023/01/19 01:35:14;;;;;;;5.78;2.95;;;;;;;17.91;41.68;100060.94;5014885;28;20787;-73
2023/01/19 01:37:41;;;;;;;6.10;2.95;;;;;;;17.90;41.32;100056.69;5007641;28;20069;-72
2023/01/19 01:40:08;;;;;;;6.38;3.20;;;;;;;17.92;41.61;100063.44;5018715;28;20068;-73
2023/01/19 01:42:34;;;;;;;5.40;3.15;;;;;;;17.89;41.25;100058.47;5022113;28;20026;-73
2023/01/19 01:45:05;;;;;;;6.03;3.33;;;;;;;17.90;41.58;100069.84;5009409;28;20037;-73
2023/01/19 01:47:42;;;;;;;6.93;3.28;;;;;;;17.85;41.58;100064.97;5006095;28;20172;-72
2023/01/19 01:50:21;;;;;;;6.55;2.80;;;;;;;17.88;41.50;100082.31;5002303;28;20073;-72
2023/01/19 01:52:51;;;;;;;5.43;2.92;;;;;;;17.86;41.51;100077.16;5010348;28;20061;-73
2023/01/19 01:55:19;;;;;;;6.78;3.03;;;;;;;17.83;41.55;100079.25;5005616;28;20033;-72
2023/01/19 01:57:50;;;;;;;5.13;2.78;;;;;;;17.85;41.30;100087.84;5001587;28;20525;-72
2023/01/19 02:00:16;;;;;;;5.90;2.88;;;;;;;17.85;41.30;100082.56;5000178;28;20041;-72
2023/01/19 02:02:52;;;;;;;6.57;2.92;;;;;;;17.81;41.66;100082.03;5001609;28;20045;-72
2023/01/19 02:05:26;;;;;;;4.93;2.95;;;;;;;17.84;41.28;100078.28;5001768;28;20033;-71
2023/01/19 02:13:46;;;;;;;6.57;2.83;;;;;;;17.77;41.55;100080.66;5010107;28;20092;-72
2023/01/19 02:16:14;;;;;;;6.05;2.78;;;;;;;17.80;41.53;100095.34;5003626;28;20029;-72
2023/01/19 02:18:40;;;;;;;6.72;2.42;;;;;;;17.74;41.76;100080.94;5011488;28;20112;-72
2023/01/19 02:21:13;;;;;;;7.00;2.80;;;;;;;17.76;41.45;100090.34;5001777;28;20037;-72
2023/01/19 02:23:48;;;;;;;5.55;2.83;;;;;;;17.77;41.51;100084.13;5001891;28;20060;-71
2023/01/19 02:26:27;;;;;;;5.95;2.70;;;;;;;17.75;41.42;100093.13;5000266;28;20450;-72
2023/01/19 02:28:57;;;;;;;5.78;2.97;;;;;;;17.72;41.66;100096.91;5001243;28;20041;-72
2023/01/19 02:31:23;;;;;;;5.10;2.65;;;;;;;17.70;41.33;100093.53;5004916;28;20037;-72
2023/01/19 02:33:49;;;;;;;5.30;2.83;;;;;;;17.71;41.38;100094.41;5019635;28;20046;-73
2023/01/19 02:36:16;;;;;;;8.38;3.35;;;;;;;17.70;41.31;100096.19;5001464;28;20127;-72
2023/01/19 02:38:45;;;;;;;7.15;3.90;;;;;;;17.68;41.60;100099.94;5011838;28;20056;-73
2023/01/19 02:41:16;;;;;;;7.35;2.72;;;;;;;17.70;41.63;100106.72;5005046;28;20030;-72
2023/01/19 02:43:42;;;;;;;6.20;3.25;;;;;;;17.67;41.71;100101.72;5001574;28;20033;-72
2023/01/19 02:46:08;;;;;;;6.30;2.95;;;;;;;17.70;41.60;100112.00;5001389;28;20038;-71
2023/01/19 02:48:33;;;;;;;6.15;2.60;;;;;;;17.66;41.70;100112.44;5010832;28;20037;-73
2023/01/19 02:51:03;;;;;;;5.05;2.70;;;;;;;17.65;41.38;100108.13;5009974;28;20045;-72
2023/01/19 02:53:34;;;;;;;6.22;3.03;;;;;;;17.67;41.29;100116.72;5001306;28;20036;-72
2023/01/19 02:56:14;;;;;;;6.03;2.75;;;;;;;17.66;41.27;100123.81;5001909;28;20037;-71
2023/01/19 02:59:17;;;;;;;6.90;3.13;;;;;;;17.66;41.22;100118.53;5005366;28;20048;-72
2023/01/19 03:01:54;;;;;;;5.80;3.00;;;;;;;17.65;41.27;100121.31;5001236;28;20434;-72
2023/01/19 03:04:38;;;;;;;5.20;2.70;;;;;;;17.61;41.36;100123.41;5003139;28;20501;-71
2023/01/19 03:07:23;;;;;;;5.63;2.50;;;;;;;17.60;41.41;100119.09;5001369;28;20038;-72
2023/01/19 03:10:03;;;;;;;5.97;2.70;;;;;;;17.62;41.36;100126.84;5006221;28;20227;-72
2023/01/19 03:12:39;;;;;;;5.95;2.58;;;;;;;17.60;41.36;100134.88;5005030;28;20038;-72
2023/01/19 03:15:16;;;;;;;5.45;2.60;;;;;;;17.57;41.21;100132.53;5005255;28;20041;-72
2023/01/19 03:17:44;;;;;;;5.82;2.80;;;;;;;17.57;41.25;100128.09;5023776;28;20470;-71
2023/01/19 03:20:12;;;;;;;6.03;2.72;;;;;;;17.56;41.18;100128.22;5004108;28;20044;-71
2023/01/19 03:22:38;;;;;;;5.57;2.80;;;;;;;17.57;41.40;100138.63;5006252;28;21046;-72
2023/01/19 03:25:04;;;;;;;7.10;2.83;;;;;;;17.52;41.30;100135.56;5011059;28;20080;-71
2023/01/19 03:27:39;;;;;;;6.45;2.75;;;;;;;17.56;41.38;100144.88;5024708;28;20065;-72
2023/01/19 03:30:09;;;;;;;5.82;2.50;;;;;;;17.54;41.31;100146.81;5024442;28;20041;-72
2023/01/19 03:32:41;;;;;;;4.72;2.42;;;;;;;17.55;41.36;100151.13;5024486;28;20025;-71
2023/01/19 03:35:10;;;;;;;6.43;2.72;;;;;;;17.51;41.44;100144.44;5004468;28;20471;-72
2023/01/19 03:37:39;;;;;;;6.07;2.63;;;;;;;17.52;41.66;100143.47;5004442;28;20081;-71
2023/01/19 03:40:05;;;;;;;5.45;2.50;;;;;;;17.50;41.60;100153.34;5004466;28;20038;-72
2023/01/19 03:42:31;;;;;;;5.35;2.53;;;;;;;17.50;41.71;100152.47;5012565;28;20043;-72
2023/01/19 03:44:59;;;;;;;5.78;2.70;;;;;;;17.50;41.54;100165.66;5012665;28;20065;-72
2023/01/19 03:47:25;;;;;;;5.68;2.95;;;;;;;17.53;41.56;100162.75;5004333;28;20048;-72
2023/01/19 03:49:52;;;;;;;4.32;2.40;;;;;;;17.49;41.66;100156.09;5004697;28;20026;-72
2023/01/19 03:52:24;;;;;;;4.95;2.30;;;;;;;17.50;41.63;100163.88;5020232;28;20040;-73
2023/01/19 03:54:50;;;;;;;4.97;2.50;;;;;;;17.50;41.21;100160.38;5020864;28;20080;-72
2023/01/19 03:57:15;;;;;;;7.07;2.67;;;;;;;17.49;41.12;100171.91;5004004;28;20128;-72
2023/01/19 03:59:40;;;;;;;6.25;2.60;;;;;;;17.49;41.58;100171.91;5004446;28;20108;-72
2023/01/19 04:02:06;;;;;;;4.67;2.43;;;;;;;17.50;41.37;100184.94;5004321;28;20041;-71
2023/01/19 04:04:31;;;;;;;4.78;2.10;;;;;;;17.49;41.78;100185.09;5024003;28;20274;-72
2023/01/19 04:06:56;;;;;;;5.97;2.20;;;;;;;17.50;41.44;100184.94;5022333;28;20057;-72
2023/01/19 04:09:22;;;;;;;3.60;1.70;;;;;;;17.51;41.69;100191.03;5017472;28;20041;-72
2023/01/19 04:11:47;;;;;;;5.72;2.30;;;;;;;17.50;42.02;100186.72;5012393;28;20034;-72
2023/01/19 04:14:12;;;;;;;4.95;2.08;;;;;;;17.53;42.15;100195.22;5004071;28;20116;-72
2023/01/19 04:16:38;;;;;;;6.23;2.10;;;;;;;17.52;41.84;100190.06;5004102;28;20429;-71
2023/01/19 04:19:03;;;;;;;4.80;1.95;;;;;;;17.50;41.77;100199.91;5002444;28;20279;-71
2023/01/19 04:21:28;;;;;;;4.40;1.88;;;;;;;17.51;41.92;100204.22;5010589;28;20056;-72
2023/01/19 04:23:54;;;;;;;3.38;1.88;;;;;;;17.50;41.86;100208.66;5007562;28;20045;-72
2023/01/19 04:26:19;;;;;;;4.88;2.10;;;;;;;17.51;41.80;100212.13;5013797;28;20113;-73
2023/01/19 04:28:44;;;;;;;4.40;1.80;;;;;;;17.48;42.13;100212.38;5022679;28;20037;-72
2023/01/19 04:31:10;;;;;;;3.75;1.95;;;;;;;17.55;42.20;100224.88;5023293;28;20037;-72
2023/01/19 04:33:35;;;;;;;3.83;1.70;;;;;;;17.52;42.29;100225.16;5023176;28;20037;-72
2023/01/19 04:36:01;;;;;;;3.67;1.60;;;;;;;17.55;42.16;100234.59;5016219;28;20046;-72
2023/01/19 04:38:26;;;;;;;3.47;1.50;;;;;;;17.57;42.23;100240.56;5003319;28;20038;-72
2023/01/19 04:40:53;;;;;;;5.63;1.65;;;;;;;17.55;42.11;100234.59;5010466;28;20462;-72
2023/01/19 04:43:20;;;;;;;3.03;1.30;;;;;;;17.51;42.40;100231.38;5010670;28;20521;-72
2023/01/19 04:45:46;;;;;;;3.42;1.40;;;;;;;17.53;42.34;100233.88;5003538;28;20044;-71
2023/01/19 04:48:12;;;;;;;4.93;1.50;;;;;;;17.53;42.07;100232.09;5017150;28;20029;-72
2023/01/19 04:50:37;;;;;;;5.78;1.70;;;;;;;17.53;42.31;100232.09;5012855;28;20033;-72
2023/01/19 04:53:02;;;;;;;3.67;1.42;;;;;;;17.53;42.20;100228.59;5003193;28;20103;-72
2023/01/19 04:55:28;;;;;;;4.50;1.63;;;;;;;17.54;42.26;100223.22;5003707;28;20042;-71
2023/01/19 04:57:53;;;;;;;4.35;1.60;;;;;;;17.54;42.38;100206.56;5006093;28;20109;-72
2023/01/19 05:00:19;;;;;;;5.15;1.45;;;;;;;17.53;42.31;100208.38;5003404;28;20376;-70
2023/01/19 05:02:45;;;;;;;4.18;1.60;;;;;;;17.58;42.32;100200.06;5020378;28;20056;-72
2023/01/19 05:05:11;;;;;;;4.15;1.60;;;;;;;17.55;42.12;100187.19;5023046;28;20466;-72
2023/01/19 05:07:37;;;;;;;3.22;1.10;;;;;;;17.56;42.53;100175.66;5015612;28;20076;-73
2023/01/19 05:10:03;;;;;;;3.03;1.30;;;;;;;17.51;42.34;100169.97;5004273;28;20083;-70
2023/01/19 05:12:28;;;;;;;2.75;1.20;;;;;;;17.55;42.04;100179.28;5006761;28;20033;-71
2023/01/19 05:14:53;;;;;;;4.57;1.58;;;;;;;17.58;42.31;100179.81;5002928;28;20034;-71
2023/01/19 05:17:19;;;;;;;4.55;1.30;;;;;;;17.58;42.38;100168.47;5016240;28;20036;-71
2023/01/19 05:19:44;;;;;;;5.00;1.30;;;;;;;17.57;42.40;100166.78;5022390;28;20037;-72
2023/01/19 05:22:09;;;;;;;3.38;1.27;;;;;;;17.53;42.54;100160.13;5022670;28;20033;-72
2023/01/19 05:24:35;;;;;;;4.38;1.20;;;;;;;17.54;42.19;100172.31;5022434;28;20026;-71
2023/01/19 05:27:00;;;;;;;3.08;1.23;;;;;;;17.59;42.32;100180.66;5022367;28;20259;-71
2023/01/19 05:29:26;;;;;;;3.28;1.30;;;;;;;17.56;42.48;100183.56;5013447;28;20075;-71
2023/01/19 05:31:51;;;;;;;4.00;1.23;;;;;;;17.59;42.36;100197.31;5002958;28;20029;-72
2023/01/19 05:34:16;;;;;;;4.07;1.23;;;;;;;17.58;42.07;100203.53;5003149;28;20034;-72
2023/01/19 05:36:42;;;;;;;1.67;0.90;;;;;;;17.47;41.73;100187.03;5019378;28;20050;-71
2023/01/19 05:39:08;;;;;;;4.60;1.42;;;;;;;17.58;41.21;100200.06;5020221;28;21164;-72
2023/01/19 05:41:33;;;;;;;2.30;1.08;;;;;;;17.67;41.25;100209.78;5019581;28;20037;-73
2023/01/19 05:43:58;;;;;;;2.38;1.10;;;;;;;17.68;40.72;100210.63;5016737;28;20067;-72
2023/01/19 05:46:24;;;;;;;2.78;1.20;;;;;;;17.73;40.75;100203.13;5019285;28;20042;-72
2023/01/19 05:48:49;;;;;;;1.85;0.90;;;;;;;17.80;40.30;100209.53;5019394;28;20451;-73
2023/01/19 05:51:15;;;;;;;2.13;1.00;;;;;;;17.84;40.15;100196.91;5020538;28;20048;-72
2023/01/19 05:53:40;;;;;;;2.50;1.10;;;;;;;17.87;39.91;100208.00;5022128;28;20076;-72
2023/01/19 05:56:08;;;;;;;3.53;1.05;;;;;;;17.91;39.97;100206.78;5022085;28;20029;-72
2023/01/19 05:58:34;;;;;;;2.50;1.17;;;;;;;17.94;39.77;100211.78;5021525;28;20390;-71
2023/01/19 06:01:04;;;;;;;2.55;1.10;;;;;;;17.93;39.76;100211.94;5021355;28;20440;-71
2023/01/19 06:03:30;;;;;;;3.50;1.38;;;;;;;17.95;39.32;100213.44;5019932;28;20439;-72
2023/01/19 06:05:57;;;;;;;2.28;1.10;;;;;;;18.00;39.38;100217.47;5020294;28;20033;-71
2023/01/19 06:08:22;;;;;;;2.42;1.15;;;;;;;18.01;39.28;100219.13;5021845;28;20061;-72
2023/01/19 06:10:47;;;;;;;3.08;1.15;;;;;;;18.07;39.21;100229.97;5014273;28;20068;-72
2023/01/19 06:13:12;;;;;;;2.65;1.10;;;;;;;18.07;39.05;100223.84;5012455;28;20106;-71
2023/01/19 06:15:38;;;;;;;2.53;1.00;;;;;;;18.08;39.07;100226.34;5005410;28;20033;-73
2023/01/19 06:18:03;;;;;;;2.00;0.90;;;;;;;18.10;38.80;100220.94;5004681;28;20877;-71
2023/01/19 06:20:28;;;;;;;2.35;1.10;;;;;;;18.12;39.01;100240.09;5017812;28;20679;-72
2023/01/19 06:22:56;;;;;;;3.67;1.13;;;;;;;18.10;38.83;100239.38;5010067;28;20461;-72
2023/01/19 06:25:22;;;;;;;2.78;1.02;;;;;;;18.12;38.60;100248.00;5021229;28;20263;-72
2023/01/19 06:27:47;;;;;;;2.42;1.10;;;;;;;18.12;38.53;100248.00;5011828;28;20119;-72
2023/01/19 06:30:13;;;;;;;2.53;1.20;;;;;;;18.11;38.83;100238.44;5004307;28;20090;-72
2023/01/19 06:32:38;;;;;;;2.45;1.10;;;;;;;18.12;38.76;100243.56;5020483;28;20041;-71
2023/01/19 06:35:06;;;;;;;2.13;1.02;;;;;;;18.12;38.57;100245.38;5000274;28;20034;-72
2023/01/19 06:37:32;;;;;;;2.63;1.00;;;;;;;18.15;38.59;100252.16;5002754;28;20097;-72
2023/01/19 06:39:58;;;;;;;2.75;1.17;;;;;;;18.14;38.95;100261.88;5016191;28;20033;-72
2023/01/19 06:42:23;;;;;;;3.47;1.20;;;;;;;18.13;39.15;100255.78;5005948;28;20045;-72
2023/01/19 06:44:48;;;;;;;3.03;1.20;;;;;;;18.09;39.03;100248.28;5008234;28;20034;-72
2023/01/19 06:47:14;;;;;;;2.30;1.08;;;;;;;18.16;39.23;100259.09;5001256;28;20520;-71
2023/01/19 06:49:40;;;;;;;3.25;1.30;;;;;;;18.13;39.12;100245.25;5005161;28;20053;-70
2023/01/19 06:52:05;;;;;;;2.63;1.10;;;;;;;18.13;39.29;100260.19;5003521;28;20900;-71
2023/01/19 06:54:30;;;;;;;3.70;1.10;;;;;;;18.12;39.24;100261.19;5017315;28;20048;-70
2023/01/19 06:56:56;;;;;;;1.70;0.95;;;;;;;18.13;39.22;100263.69;5017622;28;20120;-73
2023/01/19 06:59:21;;;;;;;4.63;1.30;;;;;;;18.13;39.29;100273.38;5019924;28;20045;-72
2023/01/19 07:01:46;;;;;;;6.07;1.67;;;;;;;18.15;39.60;100270.63;5020580;28;20037;-70
2023/01/19 07:04:13;;;;;;;5.07;1.60;;;;;;;18.16;39.57;100272.28;5020449;28;20029;-69
2023/01/19 07:06:38;;;;;;;3.22;1.30;;;;;;;18.19;39.76;100288.66;5006860;28;20132;-72
2023/01/19 07:09:06;;;;;;;4.18;1.45;;;;;;;18.18;40.11;100281.72;5016109;28;20150;-73
2023/01/19 07:11:32;;;;;;;3.90;1.50;;;;;;;18.23;40.48;100300.63;4999686;28;20117;-71
2023/01/19 07:13:58;;;;;;;3.40;1.20;;;;;;;18.22;40.37;100280.47;4999424;28;20128;-70
2023/01/19 07:16:23;;;;;;;3.38;1.40;;;;;;;18.23;40.63;100271.59;5002159;28;20471;-72
2023/01/19 07:18:49;;;;;;;4.75;1.73;;;;;;;18.29;40.48;100286.03;5001527;28;20072;-70
2023/01/19 07:21:15;;;;;;;3.63;1.38;;;;;;;18.31;40.76;100300.75;5020315;28;20026;-71
2023/01/19 07:23:42;;;;;;;4.30;1.80;;;;;;;18.31;40.81;100294.66;5007425;28;20034;-73
2023/01/19 07:26:09;;;;;;;6.95;1.67;;;;;;;18.31;40.81;100295.47;5001691;28;20037;-73
2023/01/19 07:28:35;;;;;;;5.82;1.55;;;;;;;18.31;41.13;100303.38;5016503;28;20124;-73
2023/01/19 07:31:01;;;;;;;3.88;1.50;;;;;;;18.31;41.29;100302.56;5004707;28;20045;-74
2023/01/19 07:33:27;;;;;;;6.55;1.90;;;;;;;18.30;41.24;100314.09;5008098;28;20030;-77
2023/01/19 07:35:53;;;;;;;4.03;1.67;;;;;;;18.35;41.59;100318.94;5009592;28;20125;-75
2023/01/19 07:38:19;;;;;;;7.47;2.17;;;;;;;18.31;41.52;100323.66;5007452;28;20022;-74
2023/01/19 07:40:48;;;;;;;4.55;1.60;;;;;;;18.36;41.47;100331.13;5010444;28;20084;-73
2023/01/19 07:43:13;;;;;;;5.63;1.80;;;;;;;18.35;41.47;100327.69;5006223;28;20030;-74
2023/01/19 07:45:39;;;;;;;4.45;1.80;;;;;;;18.33;41.97;100334.09;5012938;28;20047;-73
2023/01/19 07:48:04;;;;;;;5.55;1.90;;;;;;;18.37;41.99;100335.47;5010187;28;20106;-74
2023/01/19 07:50:30;;;;;;;5.78;1.88;;;;;;;18.37;43.05;100346.00;5006519;28;20112;-74
2023/01/19 07:52:55;;;;;;;7.50;2.80;;;;;;;18.43;42.91;100359.47;5015041;28;20037;-74
2023/01/19 07:55:22;;;;;;;6.20;2.13;;;;;;;18.45;42.84;100359.34;5020499;28;20037;-73
2023/01/19 07:57:50;;;;;;;8.73;2.53;;;;;;;18.38;43.12;100348.50;5022476;28;20030;-74
2023/01/19 08:00:23;;;;;;;7.25;2.78;;;;;;;18.42;43.28;100349.06;5022304;28;20026;-75
2023/01/19 08:02:50;;;;;;;8.27;2.47;;;;;;;18.44;43.80;100361.16;5017964;28;20103;-70
2023/01/19 08:05:19;;;;;;;6.32;2.50;;;;;;;18.44;43.88;100369.06;5012936;28;20456;-72
2023/01/19 08:07:45;;;;;;;5.78;2.35;;;;;;;18.48;43.93;100364.34;5023630;28;20079;-71
2023/01/19 08:10:12;;;;;;;6.43;2.67;;;;;;;18.45;43.80;100361.97;5023733;28;20033;-73
2023/01/19 08:12:37;;;;;;;6.82;2.65;;;;;;;18.51;43.62;100377.25;5014291;28;20030;-72
2023/01/19 08:15:03;;;;;;;7.32;2.45;;;;;;;18.47;43.60;100362.69;5008902;28;20048;-73
2023/01/19 08:17:28;;;;;;;7.03;2.80;;;;;;;18.50;43.10;100378.25;5019400;28;20040;-71
2023/01/19 08:19:53;;;;;;;6.95;3.00;;;;;;;18.50;43.24;100372.97;5022548;28;20048;-73
2023/01/19 08:22:19;;;;;;;6.38;2.83;;;;;;;18.52;42.96;100375.44;5002925;28;20103;-73
2023/01/19 08:24:44;;;;;;;8.00;3.27;;;;;;;18.45;42.61;100381.31;5003872;28;20034;-69
2023/01/19 08:27:09;;;;;;;7.07;3.20;;;;;;;18.48;42.58;100382.81;5021193;28;20265;-71
2023/01/19 08:29:35;;;;;;;8.43;2.90;;;;;;;18.45;42.48;100383.09;5012344;28;20877;-70
2023/01/19 08:32:01;;;;;;;6.10;3.08;;;;;;;18.51;42.59;100393.09;5009464;28;20049;-73
2023/01/19 08:34:29;;;;;;;7.50;2.67;;;;;;;18.49;42.21;100400.31;5004963;28;20033;-71
2023/01/19 08:36:54;;;;;;;8.82;2.88;;;;;;;18.49;42.35;100400.31;5016486;28;20045;-71
2023/01/19 08:39:19;;;;;;;10.23;3.15;;;;;;;18.56;42.25;100411.16;5011536;28;20041;-69
2023/01/19 08:41:44;;;;;;;9.45;3.33;;;;;;;18.54;42.30;100405.19;5012242;28;20026;-71
2023/01/19 08:44:10;;;;;;;9.70;3.40;;;;;;;18.58;42.05;100411.84;5004076;28;20045;-74
2023/01/19 08:46:35;;;;;;;9.02;2.75;;;;;;;18.57;42.07;100418.09;5013078;28;20030;-72
2023/01/19 08:49:00;;;;;;;8.82;2.92;;;;;;;18.58;41.89;100422.41;5015965;28;20075;-74
2023/01/19 08:51:26;;;;;;;7.72;3.03;;;;;;;18.57;41.82;100420.75;5012517;28;20073;-73
2023/01/19 08:53:51;;;;;;;9.88;2.95;;;;;;;18.56;42.26;100427.81;5011834;28;20041;-73
2023/01/19 08:56:17;;;;;;;6.80;2.90;;;;;;;18.58;42.05;100425.03;5017298;28;20074;-72
2023/01/19 08:58:44;;;;;;;12.15;2.53;;;;;;;18.59;42.17;100432.00;5001966;28;20763;-71
2023/01/19 09:01:15;;;;;;;8.25;2.88;;;;;;;18.62;42.14;100442.28;5003344;28;20495;-72
2023/01/19 09:03:41;;;;;;;5.57;2.80;;;;;;;18.61;41.88;100432.69;5021984;28;20525;-72
2023/01/19 09:06:08;;;;;;;7.65;3.22;;;;;;;18.63;41.67;100438.69;5023183;28;20199;-73
2023/01/19 09:08:33;;;;;;;6.53;3.10;;;;;;;18.64;41.58;100442.97;5013335;28;20095;-72
2023/01/19 09:10:58;;;;;;;7.20;2.92;;;;;;;18.63;41.60;100439.50;5006418;28;20034;-76
2023/01/19 09:13:24;;;;;;;8.38;3.17;;;;;;;18.63;41.36;100436.88;5003185;28;20429;-72
2023/01/19 09:15:50;;;;;;;7.55;3.38;;;;;;;18.62;41.42;100437.00;5017058;28;20080;-74
2023/01/19 09:18:19;;;;;;;7.45;3.28;;;;;;;18.63;41.57;100439.50;5022341;28;20389;-72
2023/01/19 09:20:45;;;;;;;7.10;2.88;;;;;;;18.65;41.61;100447.28;5016519;28;20045;-72
2023/01/19 09:23:13;;;;;;;7.55;2.88;;;;;;;18.66;41.41;100441.88;5021206;28;20041;-72
2023/01/19 09:25:40;;;;;;;7.50;3.30;;;;;;;18.64;41.51;100440.31;5020841;28;20033;-77
2023/01/19 09:28:07;;;;;;;7.18;3.20;;;;;;;18.66;41.57;100444.50;5002797;28;20084;-73
2023/01/19 09:30:35;;;;;;;7.28;3.47;;;;;;;18.68;41.37;100449.66;5020916;28;20029;-71
2023/01/19 09:33:09;;;;;;;8.25;2.90;;;;;;;18.62;41.59;100440.47;5009994;28;20123;-75
2023/01/19 09:35:35;;;;;;;6.85;3.08;;;;;;;18.66;41.60;100457.69;5012817;28;20044;-77
2023/01/19 09:38:01;;;;;;;8.77;3.78;;;;;;;18.66;41.40;100447.16;5021555;28;20042;-73
2023/01/19 09:40:27;;;;;;;7.15;3.22;;;;;;;18.71;41.21;100462.56;5018004;28;20033;-74
2023/01/19 09:43:09;;;;;;;7.95;3.40;;;;;;;18.69;41.27;100456.56;5003574;28;20061;-77
2023/01/19 09:45:53;;;;;;;7.43;3.40;;;;;;;18.71;41.28;100459.06;5004316;28;20064;-73
2023/01/19 09:48:30;;;;;;;7.20;3.40;;;;;;;18.77;41.07;100467.31;5020828;28;20037;-70
2023/01/19 09:51:00;;;;;;;7.03;3.38;;;;;;;18.75;40.98;100474.50;5012561;28;20750;-72
2023/01/19 09:53:49;;;;;;;8.75;3.78;;;;;;;18.73;41.13;100468.53;5004343;28;20073;-74
2023/01/19 09:56:18;;;;;;;7.70;3.60;;;;;;;18.79;40.55;100472.44;5007766;28;20033;-71
2023/01/19 09:58:44;;;;;;;9.02;3.97;;;;;;;18.80;40.26;100477.59;5017409;28;20034;-78
2023/01/19 10:01:41;;;;;;;11.05;4.05;;;;;;;18.80;40.44;100477.59;5012656;28;20136;-71
2023/01/19 10:04:32;;;;;;;8.68;4.03;;;;;;;18.71;40.37;100465.22;5008392;28;20033;-71
2023/01/19 10:07:20;;;;;;;9.57;3.67;;;;;;;18.82;40.29;100486.19;5012988;28;20029;-73
2023/01/19 10:10:11;;;;;;;6.78;3.45;;;;;;;18.82;40.11;100491.47;5010107;28;20061;-74
2023/01/19 10:13:15;;;;;;;9.15;3.45;;;;;;;18.83;39.95;100490.53;5008927;28;20021;-75
2023/01/19 10:16:05;;;;;;;6.57;3.60;;;;;;;18.85;40.09;100495.69;5019394;28;20095;-75
2023/01/19 10:18:44;;;;;;;9.95;3.75;;;;;;;18.80;40.25;100489.94;5002477;28;20068;-76
2023/01/19 10:21:15;;;;;;;10.13;3.40;;;;;;;18.83;40.37;100492.31;5007015;28;20036;-77
2023/01/19 10:23:43;;;;;;;8.15;3.55;;;;;;;18.89;40.06;100490.97;5011619;28;20426;-77
2023/01/19 10:26:32;;;;;;;6.15;3.30;;;;;;;18.86;40.45;100489.41;5015044;28;20068;-73
2023/01/19 10:29:07;;;;;;;6.80;2.90;;;;;;;18.86;40.38;100499.97;5016527;28;20635;-76
2023/01/19 10:31:38;;;;;;;8.70;2.80;;;;;;;18.81;40.59;100483.69;5012149;28;20034;-70
2023/01/19 10:34:03;;;;;;;7.10;3.10;;;;;;;18.89;40.26;100493.59;5013557;28;20044;-78
2023/01/19 10:36:38;;;;;;;6.38;3.58;;;;;;;18.89;39.78;100494.44;5003998;28;20054;-70
2023/01/19 10:39:04;;;;;;;;;;;;;;;18.99;39.89;100502.34;5001430;28;20044;-79
2023/01/19 10:44:04;;;;;;;6.75;3.40;;;;;;;18.92;39.46;100503.88;5159848;27;20407;-75
2023/01/19 10:46:46;;;;;;;6.68;3.15;;;;;;;18.90;39.58;100503.16;5137698;27;20067;-74
2023/01/19 10:49:27;;;;;;;6.88;3.22;;;;;;;18.83;39.14;100497.59;5124421;27;20031;-73
2023/01/19 10:51:55;;;;;;;6.70;3.03;;;;;;;18.84;39.54;100507.22;5118732;27;20539;-76
2023/01/19 10:54:21;;;;;;;6.22;3.20;;;;;;;18.79;39.35;100499.66;5130057;27;20031;-74
2023/01/19 10:56:56;;;;;;;8.07;3.22;;;;;;;18.78;39.15;100503.28;5122921;27;20065;-75
2023/01/19 10:59:37;;;;;;;7.70;3.40;;;;;;;18.81;39.28;100507.44;5125776;27;20547;-74
2023/01/19 11:02:19;;;;;;;9.35;3.20;;;;;;;18.80;39.41;100522.47;5111519;27;20075;-75
2023/01/19 11:04:47;;;;;;;6.97;3.30;;;;;;;18.79;39.14;100514.69;5127109;27;20035;-71
2023/01/19 11:07:25;;;;;;;5.82;3.10;;;;;;;18.77;39.24;100514.81;5127275;27;20864;-73
2023/01/19 11:10:12;;;;;;;8.48;3.10;;;;;;;18.78;39.16;100513.84;5119148;27;20062;-70
2023/01/19 11:13:00;;;;;;;5.82;2.97;;;;;;;18.78;38.97;100507.72;5120961;27;20031;-72
2023/01/19 11:15:35;;;;;;;7.88;2.90;;;;;;;18.76;38.75;100512.31;5123175;27;20057;-72
2023/01/19 11:18:02;;;;;;;5.78;3.00;;;;;;;18.75;38.85;100515.91;5125024;27;20522;-73
2023/01/19 11:20:48;;;;;;;6.82;3.15;;;;;;;18.70;38.98;100503.13;5124524;27;20067;-70
2023/01/19 11:23:13;;;;;;;5.35;2.90;;;;;;;18.75;39.18;100506.19;5136608;27;20030;-71
2023/01/19 11:25:39;;;;;;;6.63;2.90;;;;;;;18.76;38.88;100512.31;5131050;27;20463;-70
2023/01/19 11:28:05;;;;;;;6.07;2.97;;;;;;;18.72;38.99;100503.81;5125346;27;20745;-73
2023/01/19 11:30:30;;;;;;;6.80;3.22;;;;;;;18.75;38.92;100505.34;5138842;27;20066;-74
2023/01/19 11:32:56;;;;;;;8.40;3.92;;;;;;;18.76;39.11;100505.22;5136032;27;20049;-72
2023/01/19 11:35:32;;;;;;;8.80;5.00;;;;;;;18.75;38.88;100503.53;5127417;27;21030;-77
2023/01/19 11:38:06;;;;;;;9.75;5.70;;;;;;;18.75;39.12;100502.72;5118803;27;20028;-75